Palmdale Regional/USAF Plant 42 Airport
KPMD : now visible

Airfield :











YOU CAN JOIN US ON...

 
LOGIN :

Register | Disclaimer

   EN    FR    IT 

 









Legend :    VFR   Marginal VFR   IFR   Intensive IFR   Very Intensive IFR
Visi :
Ceiling :
>= 8 km
>= 3000ft
5 to 8 km
1000 to 3000 ft
1500m to 5 km
500 to 1000 ft
800 to 1500m
200 to 500 ft
< 800m
< 200 ft
Symbols :   Thunderstorms  Fog  Heavy snow  Heavy precipitations  Wind > 20 kt







- Airport Elevation : 2543 ft
- IATA code : PMD


KPMD - Palmdale Regional/USAF Plant 42

CURRENT METAR :
  • 181053Z AUTO 17004KT 10SM CLR 12/04 A2994 RMK AO2 SLP118 T01220039

EXPIRED METARs :
  • 180953Z AUTO 00000KT 10SM CLR 12/06 A2995 RMK AO2 SLP121 T01220061
  • 180853Z AUTO 00000KT 10SM CLR 13/04 A2996 RMK AO2 SLP123 T01330039 57004

TAF KPMD
Valid from the 18 at 06:00 until the 19 at 06:00 UTC


180520Z 1806/1906 31006KT P6SM SKC
FM181200 23005KT P6SM SKC
FM181800 25010KT P6SM SKC
FM182100 25016G22KT P6SM SKC
FM190300 25012KT P6SM SKC
No reported NOTAMs for that airfield.



MET'MAP, your aeronautical weather chart ! - Copyright ORBIFLY December 2007 - Disclaimer

ORBIFLY MET'MAP TEAM :

Programming & Development : Alexandra Zaïnal
Concept & Development : Baudouin d'Aumeries
Co-Development & Prog : Marc-Olivier Méhu
Technical & hardware support : Manuel Goepfert

Contact : metmap@orbifly.com




SOURCES & CREDITS :

   NOAA       Earth
Advisory